Hlavní strana
METAR-TAF:

METAR-TAF

Letiště :

Hamilton, Ohio, Spojené státy americké

zeměpisná šířka: 39-21-41N, zeměpisná délka: 084-31-15W, výška: 193 m

Aktuální stav počasí

Zpráva byla vytvořena před 27 minutami, v 09:53 UTC
Severní vítr 3 kt
Teplota -3°C
Vlhkost vzduchu 74%
Tlak 1017 hPa
Viditelnost: 16.1 km
Zataženo ve výšce 1900 ft

METAR: KHAO 160953Z AUTO 36003KT 10SM OVC019 M03/M07 A3002 RMK AO2 SLP174 T10331067

Čas: 05:20 (10:20 UTC)


TAF: chybějící

Stav a předpovědi počasí z více než 4 000 letišť (zprávy METAR a TAF).

Červené a žluté tečky na mapě představují dostupné meteorologické stanice.

Když kurzor umístíte na tečku, zobrazí se název stanice.

Pak kliknutím zobrazíte stav a předpověď počasí.

Chcete-li změnit mapu, kliknutím na zelené tlačítko se znaménkem +mapu přiblížíte, kliknutím na zelené tlačítko se znaménkem – mapu oddálíte a kliknutím na zelené šipky přejdete na sousední mapy.


METAR-TAF: